createdAt,value
2023-06-14T14:47:32.981Z,33.07
2023-06-14T14:50:00.408Z,33.35
2023-06-14T14:52:27.883Z,34.01
2023-06-14T14:54:55.156Z,33.96
2023-06-14T14:57:22.855Z,34.42
2023-06-14T14:59:49.972Z,34.34
2023-06-14T15:02:17.170Z,33.70
2023-06-14T15:04:44.320Z,33.44
2023-06-14T15:07:11.514Z,33.46
2023-06-14T15:09:39.370Z,33.15
2023-06-14T15:12:08.147Z,33.14
2023-06-14T15:14:35.344Z,33.42
2023-06-14T15:17:03.566Z,32.95
2023-06-14T15:19:31.365Z,32.95
2023-06-14T15:22:00.056Z,33.07
2023-06-14T15:24:41.568Z,32.90
2023-06-14T15:27:12.235Z,32.31
2023-06-14T15:29:42.894Z,32.16
2023-06-14T15:32:13.896Z,32.65
2023-06-14T15:34:41.202Z,32.70
2023-06-14T15:37:09.293Z,32.46
2023-06-14T15:39:36.658Z,32.59
2023-06-14T15:42:04.760Z,32.85
2023-06-14T15:44:31.983Z,32.96
2023-06-14T15:46:59.150Z,32.91
2023-06-14T15:49:27.119Z,32.83
2023-06-14T15:51:54.365Z,33.06
2023-06-14T15:54:21.725Z,33.65
2023-06-14T15:56:48.844Z,34.30
2023-06-14T15:59:15.954Z,34.05
2023-06-14T16:01:43.087Z,33.56
2023-06-14T16:04:11.036Z,33.25
2023-06-14T16:06:38.142Z,33.04
2023-06-14T16:09:05.317Z,32.90
2023-06-14T16:11:32.428Z,33.37
2023-06-14T16:13:59.724Z,33.61
2023-06-14T16:16:27.173Z,33.35
2023-06-14T16:18:54.453Z,32.18
2023-06-14T16:21:21.651Z,32.52
2023-06-14T16:23:48.942Z,33.22
2023-06-14T16:26:16.210Z,33.74
2023-06-14T16:28:43.459Z,34.20
2023-06-14T16:31:12.658Z,34.11
2023-06-14T16:33:40.170Z,34.15
2023-06-14T16:36:07.429Z,34.09
2023-06-14T16:38:35.047Z,34.03
2023-06-14T16:41:02.468Z,33.62
2023-06-14T16:43:29.609Z,33.39
2023-06-14T16:45:57.181Z,33.17
2023-06-14T16:48:24.470Z,32.72
2023-06-14T16:50:51.687Z,32.30
2023-06-14T16:53:18.915Z,30.73
2023-06-14T16:55:46.051Z,30.14
2023-06-14T16:58:13.343Z,29.68
2023-06-14T17:00:40.509Z,29.34
2023-06-14T17:03:07.818Z,29.00
2023-06-14T17:05:35.522Z,28.43
2023-06-14T17:08:03.472Z,28.17
2023-06-14T17:10:30.625Z,27.67
2023-06-14T17:12:58.372Z,27.57
2023-06-14T17:15:25.566Z,27.54
2023-06-14T17:17:52.778Z,27.37
2023-06-14T17:20:21.360Z,27.24
2023-06-14T17:22:48.516Z,27.22
2023-06-14T17:25:15.967Z,27.19
2023-06-14T17:27:43.125Z,27.20
2023-06-14T17:30:11.338Z,27.07
2023-06-14T17:32:38.774Z,26.99
2023-06-14T17:35:06.350Z,26.95
2023-06-14T17:37:33.618Z,26.95
2023-06-14T17:40:01.332Z,26.84
2023-06-14T17:42:28.412Z,26.88
2023-06-14T17:44:56.868Z,26.88
2023-06-14T17:47:35.615Z,26.93
2023-06-14T17:50:04.822Z,26.91
2023-06-14T17:52:32.122Z,26.88
2023-06-14T17:54:59.220Z,26.77
2023-06-14T17:57:26.885Z,26.73
2023-06-14T17:59:55.975Z,26.67
2023-06-14T18:02:23.331Z,26.57
2023-06-14T18:04:50.683Z,26.50
2023-06-14T18:07:17.814Z,26.47
2023-06-14T18:09:44.948Z,26.42
2023-06-14T18:12:12.896Z,26.38
2023-06-14T18:14:40.449Z,26.29
2023-06-14T18:17:07.732Z,26.18
2023-06-14T18:19:35.637Z,26.12
2023-06-14T18:22:02.793Z,26.09
2023-06-14T18:24:29.952Z,25.99
2023-06-14T18:26:57.265Z,25.92
2023-06-14T18:29:24.476Z,25.76
2023-06-14T18:31:51.722Z,25.66
2023-06-14T18:34:18.918Z,25.54
2023-06-14T18:36:46.143Z,25.43
2023-06-14T18:39:13.240Z,25.42
2023-06-14T18:41:41.184Z,25.43
2023-06-14T18:44:08.488Z,25.46
2023-06-14T18:46:35.679Z,25.49
2023-06-14T18:49:02.979Z,25.47
2023-06-14T18:51:30.124Z,25.36
2023-06-14T18:53:57.411Z,25.30
2023-06-14T18:56:24.564Z,25.18
2023-06-14T18:58:51.783Z,25.08
2023-06-14T19:01:18.981Z,24.97
2023-06-14T19:03:46.465Z,24.92
2023-06-14T19:06:13.692Z,24.84
2023-06-14T19:08:43.501Z,24.83
2023-06-14T19:11:10.988Z,24.75
2023-06-14T19:13:38.338Z,24.72
2023-06-14T19:16:05.589Z,24.69
2023-06-14T19:18:33.454Z,24.58
2023-06-14T19:21:00.882Z,24.51
2023-06-14T19:23:28.590Z,24.47
2023-06-14T19:25:55.875Z,24.43
2023-06-14T19:28:25.411Z,24.38
2023-06-14T19:30:54.387Z,24.23
2023-06-14T19:33:21.566Z,24.20
2023-06-14T19:35:48.820Z,24.20
2023-06-14T19:38:16.016Z,24.09
2023-06-14T19:40:43.328Z,24.03
2023-06-14T19:43:10.990Z,24.00
2023-06-14T19:45:38.467Z,23.94
2023-06-14T19:48:19.114Z,23.86
2023-06-14T19:50:51.042Z,23.79
2023-06-14T19:53:18.542Z,23.73
2023-06-14T19:55:46.015Z,23.65
2023-06-14T19:58:13.228Z,23.53
2023-06-14T20:00:41.210Z,23.52
2023-06-14T20:03:08.416Z,23.41
2023-06-14T20:05:36.310Z,23.37
2023-06-14T20:08:04.038Z,23.29
2023-06-14T20:10:31.290Z,23.22
2023-06-14T20:12:58.464Z,23.17
2023-06-14T20:15:25.622Z,23.13
2023-06-14T20:17:52.926Z,23.00
2023-06-14T20:20:20.156Z,22.97
2023-06-14T20:22:47.265Z,22.86
2023-06-14T20:25:14.873Z,22.82
2023-06-14T20:27:42.617Z,22.77
2023-06-14T20:30:10.558Z,22.68
2023-06-14T20:32:37.736Z,22.64
2023-06-14T20:35:05.278Z,22.57
2023-06-14T20:37:32.443Z,22.54
2023-06-14T20:40:06.358Z,22.46
2023-06-14T20:42:34.486Z,22.39
2023-06-14T20:45:01.894Z,22.35
2023-06-14T20:47:29.703Z,22.27
2023-06-14T20:49:57.376Z,22.21
2023-06-14T20:52:25.143Z,22.13
2023-06-14T20:54:53.232Z,22.01
2023-06-14T20:57:22.824Z,21.92
2023-06-14T20:59:50.822Z,21.93
2023-06-14T21:02:18.817Z,21.84
2023-06-14T21:04:46.974Z,21.86
2023-06-14T21:07:14.613Z,21.77
2023-06-14T21:09:42.448Z,21.70
2023-06-14T21:12:10.364Z,21.63
2023-06-14T21:14:37.756Z,21.63
2023-06-14T21:17:06.784Z,21.57
2023-06-14T21:19:34.101Z,21.61
2023-06-14T21:22:01.207Z,21.62
2023-06-14T21:24:28.413Z,21.59
2023-06-14T21:26:55.596Z,21.57
2023-06-14T21:29:22.778Z,21.50
2023-06-14T21:31:49.894Z,21.44
2023-06-14T21:34:17.011Z,21.45
2023-06-14T21:36:44.116Z,21.35
2023-06-14T21:39:11.696Z,21.16
2023-06-14T21:41:39.434Z,21.19
2023-06-14T21:44:06.650Z,21.11
2023-06-14T21:46:33.857Z,21.03
2023-06-14T21:49:01.046Z,21.02
2023-06-14T21:51:28.283Z,21.00
2023-06-14T21:53:56.642Z,20.91
2023-06-14T21:56:25.190Z,20.83
2023-06-14T21:58:52.320Z,20.80
2023-06-14T22:01:20.010Z,20.76
2023-06-14T22:03:47.292Z,20.71
2023-06-14T22:06:14.497Z,20.72
2023-06-14T22:08:42.429Z,20.75
2023-06-14T22:11:11.286Z,20.73
2023-06-14T22:13:41.428Z,20.65
2023-06-14T22:16:09.276Z,20.62
2023-06-14T22:18:36.683Z,20.59
2023-06-14T22:21:03.945Z,20.55
2023-06-14T22:23:48.745Z,20.54
2023-06-14T22:26:25.467Z,20.48
2023-06-14T22:29:06.107Z,20.42
2023-06-14T22:31:38.085Z,20.31
2023-06-14T22:34:05.545Z,20.26
2023-06-14T22:36:32.745Z,20.20
2023-06-14T22:39:04.500Z,20.16
2023-06-14T22:41:32.959Z,20.14
2023-06-14T22:44:00.184Z,20.13
2023-06-14T22:46:29.361Z,20.12
2023-06-14T22:48:58.257Z,20.03
2023-06-14T22:51:26.250Z,19.83
2023-06-14T22:53:53.975Z,19.76
2023-06-14T22:56:21.737Z,19.69
2023-06-14T22:58:49.392Z,19.65
2023-06-14T23:01:18.833Z,19.55
2023-06-14T23:03:48.331Z,19.59
2023-06-14T23:06:25.883Z,19.55
2023-06-14T23:08:54.828Z,19.49
2023-06-14T23:11:23.570Z,19.47
2023-06-14T23:13:57.279Z,19.43
2023-06-14T23:16:24.879Z,19.38
2023-06-14T23:18:55.303Z,19.35
2023-06-14T23:21:22.641Z,19.30
2023-06-14T23:23:51.044Z,19.28
2023-06-14T23:26:21.764Z,19.28
2023-06-14T23:28:54.931Z,19.28
2023-06-14T23:31:23.704Z,19.27
2023-06-14T23:33:53.735Z,19.25
2023-06-14T23:36:21.501Z,19.20
2023-06-14T23:38:49.457Z,19.22
2023-06-14T23:41:17.193Z,19.20
2023-06-14T23:43:46.862Z,19.17
2023-06-14T23:46:16.550Z,19.18
2023-06-14T23:48:44.223Z,19.14
2023-06-14T23:51:11.505Z,19.13
2023-06-14T23:53:39.023Z,19.12
2023-06-14T23:56:10.497Z,19.10
2023-06-14T23:58:38.582Z,19.13
